Terminal Aerodrome Forecast
Issued by NWS

Home | Current Version | Previous Version | Graphics & Text | Print | Product List | Glossary On
Versions: 1 2 3 4 5 6 7 8 9 10 11 12 13 14 15 16 17 18 19 20 21 22 23
000
FTUS42 KMHX 241543 AAB
TAFPGV
TAF AMD
KPGV 241543Z 2416/2512 02004KT 1SM -SN OVC009
     FM241700 04005KT 2SM -SN BR OVC007
     FM242100 04005KT 2SM -SNPL BR OVC005
     FM250300 VRB03KT 3SM BR OVC005
     FM250600 VRB03KT P6SM SCT030
      AMD LTD TO CLD VIS AND WIND=

USA.gov is the U.S. government's official web portal to all federal, state and local government web resources and services.